sensor_id;sensor_type;location;lat;lon;timestamp;temperature;humidity
63260;DHT22;49390;51.380;0.098;2023-05-07T00:00:31;14.30;99.90
63260;DHT22;49390;51.380;0.098;2023-05-07T00:03:19;14.30;99.90
63260;DHT22;49390;51.380;0.098;2023-05-07T00:05:47;14.30;99.90
63260;DHT22;49390;51.380;0.098;2023-05-07T00:08:16;14.30;99.90
63260;DHT22;49390;51.380;0.098;2023-05-07T00:10:43;14.20;99.90
63260;DHT22;49390;51.380;0.098;2023-05-07T00:13:12;14.20;99.90
63260;DHT22;49390;51.380;0.098;2023-05-07T00:15:40;14.20;99.90
63260;DHT22;49390;51.380;0.098;2023-05-07T00:18:08;14.20;99.90
63260;DHT22;49390;51.380;0.098;2023-05-07T00:20:36;14.20;99.90
63260;DHT22;49390;51.380;0.098;2023-05-07T00:23:04;14.20;99.90
63260;DHT22;49390;51.380;0.098;2023-05-07T00:27:48;14.10;99.90
63260;DHT22;49390;51.380;0.098;2023-05-07T00:30:16;14.10;99.90
63260;DHT22;49390;51.380;0.098;2023-05-07T00:32:44;14.10;99.90
63260;DHT22;49390;51.380;0.098;2023-05-07T00:35:17;14.20;99.90
63260;DHT22;49390;51.380;0.098;2023-05-07T00:37:44;14.20;99.90
63260;DHT22;49390;51.380;0.098;2023-05-07T00:40:12;14.20;99.90
63260;DHT22;49390;51.380;0.098;2023-05-07T00:42:42;14.20;99.90
63260;DHT22;49390;51.380;0.098;2023-05-07T00:45:16;14.20;99.90
63260;DHT22;49390;51.380;0.098;2023-05-07T00:47:44;14.20;99.90
63260;DHT22;49390;51.380;0.098;2023-05-07T00:50:12;14.20;99.90
63260;DHT22;49390;51.380;0.098;2023-05-07T00:52:41;14.20;99.90
63260;DHT22;49390;51.380;0.098;2023-05-07T00:55:10;14.20;99.90
63260;DHT22;49390;51.380;0.098;2023-05-07T00:57:40;14.20;99.90
63260;DHT22;49390;51.380;0.098;2023-05-07T01:00:09;14.20;99.90
63260;DHT22;49390;51.380;0.098;2023-05-07T01:02:38;14.20;99.90
63260;DHT22;49390;51.380;0.098;2023-05-07T01:05:13;14.20;99.90
63260;DHT22;49390;51.380;0.098;2023-05-07T01:07:43;14.10;99.90
63260;DHT22;49390;51.380;0.098;2023-05-07T01:10:12;14.10;99.90
63260;DHT22;49390;51.380;0.098;2023-05-07T01:12:41;14.10;99.90
63260;DHT22;49390;51.380;0.098;2023-05-07T01:15:12;14.10;99.90
63260;DHT22;49390;51.380;0.098;2023-05-07T01:17:41;14.10;99.90
63260;DHT22;49390;51.380;0.098;2023-05-07T01:20:19;14.10;99.90
63260;DHT22;49390;51.380;0.098;2023-05-07T01:22:49;14.10;99.90
63260;DHT22;49390;51.380;0.098;2023-05-07T01:25:18;14.00;99.90
63260;DHT22;49390;51.380;0.098;2023-05-07T01:27:50;14.00;99.90
63260;DHT22;49390;51.380;0.098;2023-05-07T01:30:21;14.00;99.90
63260;DHT22;49390;51.380;0.098;2023-05-07T01:33:03;14.00;99.90
63260;DHT22;49390;51.380;0.098;2023-05-07T01:35:36;14.00;99.90
63260;DHT22;49390;51.380;0.098;2023-05-07T01:38:05;14.00;99.90
63260;DHT22;49390;51.380;0.098;2023-05-07T01:40:34;14.00;99.90
63260;DHT22;49390;51.380;0.098;2023-05-07T01:43:03;14.00;99.90
63260;DHT22;49390;51.380;0.098;2023-05-07T01:45:34;14.00;99.90
63260;DHT22;49390;51.380;0.098;2023-05-07T01:48:03;14.00;99.90
63260;DHT22;49390;51.380;0.098;2023-05-07T01:52:47;13.90;99.90
63260;DHT22;49390;51.380;0.098;2023-05-07T01:55:17;13.90;99.90
63260;DHT22;49390;51.380;0.098;2023-05-07T01:57:45;13.90;99.90
63260;DHT22;49390;51.380;0.098;2023-05-07T02:00:16;13.80;99.90
63260;DHT22;49390;51.380;0.098;2023-05-07T02:02:45;13.80;99.90
63260;DHT22;49390;51.380;0.098;2023-05-07T02:05:36;13.70;99.90
63260;DHT22;49390;51.380;0.098;2023-05-07T02:08:11;13.70;99.90
63260;DHT22;49390;51.380;0.098;2023-05-07T02:10:39;13.60;99.90
63260;DHT22;49390;51.380;0.098;2023-05-07T02:13:07;13.60;99.90
63260;DHT22;49390;51.380;0.098;2023-05-07T02:15:35;13.50;99.90
63260;DHT22;49390;51.380;0.098;2023-05-07T02:18:07;13.50;99.90
63260;DHT22;49390;51.380;0.098;2023-05-07T02:20:35;13.50;99.90
63260;DHT22;49390;51.380;0.098;2023-05-07T02:23:08;13.40;99.90
63260;DHT22;49390;51.380;0.098;2023-05-07T02:25:36;13.40;99.90
63260;DHT22;49390;51.380;0.098;2023-05-07T02:28:04;13.40;99.90
63260;DHT22;49390;51.380;0.098;2023-05-07T02:30:42;13.30;99.90
63260;DHT22;49390;51.380;0.098;2023-05-07T02:33:09;13.40;99.90
63260;DHT22;49390;51.380;0.098;2023-05-07T02:35:40;13.40;99.90
63260;DHT22;49390;51.380;0.098;2023-05-07T02:38:09;13.40;99.90
63260;DHT22;49390;51.380;0.098;2023-05-07T02:40:39;13.40;99.90
63260;DHT22;49390;51.380;0.098;2023-05-07T02:43:08;13.40;99.90
63260;DHT22;49390;51.380;0.098;2023-05-07T02:45:43;13.50;99.90
63260;DHT22;49390;51.380;0.098;2023-05-07T02:48:14;13.40;99.90
63260;DHT22;49390;51.380;0.098;2023-05-07T02:50:43;13.40;99.90
63260;DHT22;49390;51.380;0.098;2023-05-07T02:53:13;13.40;99.90
63260;DHT22;49390;51.380;0.098;2023-05-07T02:55:41;13.40;99.90
63260;DHT22;49390;51.380;0.098;2023-05-07T02:58:08;13.40;99.90
63260;DHT22;49390;51.380;0.098;2023-05-07T03:00:38;13.50;99.90
63260;DHT22;49390;51.380;0.098;2023-05-07T03:03:20;13.50;99.90
63260;DHT22;49390;51.380;0.098;2023-05-07T03:05:48;13.50;99.90
63260;DHT22;49390;51.380;0.098;2023-05-07T03:08:16;13.50;99.90
63260;DHT22;49390;51.380;0.098;2023-05-07T03:10:44;13.50;99.90
63260;DHT22;49390;51.380;0.098;2023-05-07T03:13:17;13.50;99.90
63260;DHT22;49390;51.380;0.098;2023-05-07T03:15:45;13.50;99.90
63260;DHT22;49390;51.380;0.098;2023-05-07T03:18:13;13.50;99.90
63260;DHT22;49390;51.380;0.098;2023-05-07T03:20:41;13.50;99.90
63260;DHT22;49390;51.380;0.098;2023-05-07T03:23:09;13.50;99.90
63260;DHT22;49390;51.380;0.098;2023-05-07T03:25:37;13.50;99.90
63260;DHT22;49390;51.380;0.098;2023-05-07T03:28:05;13.50;99.90
63260;DHT22;49390;51.380;0.098;2023-05-07T03:30:45;13.50;99.90
63260;DHT22;49390;51.380;0.098;2023-05-07T03:33:13;13.50;99.90
63260;DHT22;49390;51.380;0.098;2023-05-07T03:35:41;13.50;99.90
63260;DHT22;49390;51.380;0.098;2023-05-07T03:38:11;13.50;99.90
63260;DHT22;49390;51.380;0.098;2023-05-07T03:40:39;13.50;99.90
63260;DHT22;49390;51.380;0.098;2023-05-07T03:43:07;13.50;99.90
63260;DHT22;49390;51.380;0.098;2023-05-07T03:45:39;13.50;99.90
63260;DHT22;49390;51.380;0.098;2023-05-07T03:48:13;13.50;99.90
63260;DHT22;49390;51.380;0.098;2023-05-07T03:50:41;13.50;99.90
63260;DHT22;49390;51.380;0.098;2023-05-07T03:53:09;13.50;99.90
63260;DHT22;49390;51.380;0.098;2023-05-07T03:55:39;13.50;99.90
63260;DHT22;49390;51.380;0.098;2023-05-07T03:58:07;13.50;99.90
63260;DHT22;49390;51.380;0.098;2023-05-07T04:00:35;13.50;99.90
63260;DHT22;49390;51.380;0.098;2023-05-07T04:03:15;13.50;99.90
63260;DHT22;49390;51.380;0.098;2023-05-07T04:05:46;13.50;99.90
63260;DHT22;49390;51.380;0.098;2023-05-07T04:08:14;13.50;99.90
63260;DHT22;49390;51.380;0.098;2023-05-07T04:10:47;13.50;99.90
63260;DHT22;49390;51.380;0.098;2023-05-07T04:13:15;13.50;99.90
63260;DHT22;49390;51.380;0.098;2023-05-07T04:15:44;13.50;99.90
63260;DHT22;49390;51.380;0.098;2023-05-07T04:18:15;13.50;99.90
63260;DHT22;49390;51.380;0.098;2023-05-07T04:20:46;13.50;99.90
63260;DHT22;49390;51.380;0.098;2023-05-07T04:23:16;13.50;99.90
63260;DHT22;49390;51.380;0.098;2023-05-07T04:25:44;13.50;99.90
63260;DHT22;49390;51.380;0.098;2023-05-07T04:28:31;13.50;99.90
63260;DHT22;49390;51.380;0.098;2023-05-07T04:30:59;13.50;99.90
63260;DHT22;49390;51.380;0.098;2023-05-07T04:33:32;13.50;99.90
63260;DHT22;49390;51.380;0.098;2023-05-07T04:36:04;13.50;99.90
63260;DHT22;49390;51.380;0.098;2023-05-07T04:38:37;13.50;99.90
63260;DHT22;49390;51.380;0.098;2023-05-07T04:41:08;13.50;99.90
63260;DHT22;49390;51.380;0.098;2023-05-07T04:43:40;13.50;99.90
63260;DHT22;49390;51.380;0.098;2023-05-07T04:46:13;13.50;99.90
63260;DHT22;49390;51.380;0.098;2023-05-07T04:48:42;13.50;99.90
63260;DHT22;49390;51.380;0.098;2023-05-07T04:51:11;13.50;99.90
63260;DHT22;49390;51.380;0.098;2023-05-07T04:53:39;13.50;99.90
63260;DHT22;49390;51.380;0.098;2023-05-07T04:56:08;13.50;99.90
63260;DHT22;49390;51.380;0.098;2023-05-07T04:58:42;13.50;99.90
63260;DHT22;49390;51.380;0.098;2023-05-07T05:01:13;13.50;99.90
63260;DHT22;49390;51.380;0.098;2023-05-07T05:03:42;13.50;99.90
63260;DHT22;49390;51.380;0.098;2023-05-07T05:06:10;13.50;99.90
63260;DHT22;49390;51.380;0.098;2023-05-07T05:08:40;13.50;99.90
63260;DHT22;49390;51.380;0.098;2023-05-07T05:11:10;13.50;99.90
63260;DHT22;49390;51.380;0.098;2023-05-07T05:13:38;13.40;99.90
63260;DHT22;49390;51.380;0.098;2023-05-07T05:16:14;13.50;99.90
63260;DHT22;49390;51.380;0.098;2023-05-07T05:18:43;13.40;99.90
63260;DHT22;49390;51.380;0.098;2023-05-07T05:21:13;13.50;99.90
63260;DHT22;49390;51.380;0.098;2023-05-07T05:23:45;13.50;99.90
63260;DHT22;49390;51.380;0.098;2023-05-07T05:26:17;13.50;99.90
63260;DHT22;49390;51.380;0.098;2023-05-07T05:28:45;13.50;99.90
63260;DHT22;49390;51.380;0.098;2023-05-07T05:31:15;13.50;99.90
63260;DHT22;49390;51.380;0.098;2023-05-07T05:33:44;13.50;99.90
63260;DHT22;49390;51.380;0.098;2023-05-07T05:36:12;13.50;99.90
63260;DHT22;49390;51.380;0.098;2023-05-07T05:38:42;13.60;99.90
63260;DHT22;49390;51.380;0.098;2023-05-07T05:41:12;13.60;99.90
63260;DHT22;49390;51.380;0.098;2023-05-07T05:43:40;13.60;99.90
63260;DHT22;49390;51.380;0.098;2023-05-07T05:46:10;13.60;99.90
63260;DHT22;49390;51.380;0.098;2023-05-07T05:48:39;13.60;99.90
63260;DHT22;49390;51.380;0.098;2023-05-07T05:51:08;13.60;99.90
63260;DHT22;49390;51.380;0.098;2023-05-07T05:53:36;13.60;99.90
63260;DHT22;49390;51.380;0.098;2023-05-07T05:56:06;13.60;99.90
63260;DHT22;49390;51.380;0.098;2023-05-07T05:58:35;13.60;99.90
63260;DHT22;49390;51.380;0.098;2023-05-07T06:01:09;13.60;99.90
63260;DHT22;49390;51.380;0.098;2023-05-07T06:03:38;13.60;99.90
63260;DHT22;49390;51.380;0.098;2023-05-07T06:06:12;13.70;99.90
63260;DHT22;49390;51.380;0.098;2023-05-07T06:08:43;13.70;99.90
63260;DHT22;49390;51.380;0.098;2023-05-07T06:11:15;13.70;99.90
63260;DHT22;49390;51.380;0.098;2023-05-07T06:13:46;13.70;99.90
63260;DHT22;49390;51.380;0.098;2023-05-07T06:16:14;13.70;99.90
63260;DHT22;49390;51.380;0.098;2023-05-07T06:18:43;13.70;99.90
63260;DHT22;49390;51.380;0.098;2023-05-07T06:21:14;13.80;99.90
63260;DHT22;49390;51.380;0.098;2023-05-07T06:23:45;13.80;99.90
63260;DHT22;49390;51.380;0.098;2023-05-07T06:26:14;13.80;99.90
63260;DHT22;49390;51.380;0.098;2023-05-07T06:28:45;13.80;99.90
63260;DHT22;49390;51.380;0.098;2023-05-07T06:31:17;13.90;99.90
63260;DHT22;49390;51.380;0.098;2023-05-07T06:33:57;13.90;99.90
63260;DHT22;49390;51.380;0.098;2023-05-07T06:36:31;13.90;99.90
63260;DHT22;49390;51.380;0.098;2023-05-07T06:39:02;13.90;99.90
63260;DHT22;49390;51.380;0.098;2023-05-07T06:41:30;13.90;99.90
63260;DHT22;49390;51.380;0.098;2023-05-07T06:44:08;13.90;99.90
63260;DHT22;49390;51.380;0.098;2023-05-07T06:46:48;13.90;99.90
63260;DHT22;49390;51.380;0.098;2023-05-07T06:49:16;14.00;99.90
63260;DHT22;49390;51.380;0.098;2023-05-07T06:51:45;14.00;99.90
63260;DHT22;49390;51.380;0.098;2023-05-07T06:54:13;14.00;99.90
63260;DHT22;49390;51.380;0.098;2023-05-07T06:56:43;14.00;99.90
63260;DHT22;49390;51.380;0.098;2023-05-07T06:59:11;14.00;99.90
63260;DHT22;49390;51.380;0.098;2023-05-07T07:01:41;14.00;99.90
63260;DHT22;49390;51.380;0.098;2023-05-07T07:04:11;14.00;99.90
63260;DHT22;49390;51.380;0.098;2023-05-07T07:06:44;14.00;99.90
63260;DHT22;49390;51.380;0.098;2023-05-07T07:09:14;14.00;99.90
63260;DHT22;49390;51.380;0.098;2023-05-07T07:11:43;14.00;99.90
63260;DHT22;49390;51.380;0.098;2023-05-07T07:14:11;14.00;99.90
63260;DHT22;49390;51.380;0.098;2023-05-07T07:16:45;14.00;99.90
63260;DHT22;49390;51.380;0.098;2023-05-07T07:19:16;14.00;99.90
63260;DHT22;49390;51.380;0.098;2023-05-07T07:21:47;14.10;99.90
63260;DHT22;49390;51.380;0.098;2023-05-07T07:24:15;14.10;99.90
63260;DHT22;49390;51.380;0.098;2023-05-07T07:26:48;14.10;99.90
63260;DHT22;49390;51.380;0.098;2023-05-07T07:29:17;14.10;99.90
63260;DHT22;49390;51.380;0.098;2023-05-07T07:31:48;14.20;99.90
63260;DHT22;49390;51.380;0.098;2023-05-07T07:34:19;14.20;99.90
63260;DHT22;49390;51.380;0.098;2023-05-07T07:36:47;14.20;99.90
63260;DHT22;49390;51.380;0.098;2023-05-07T07:39:18;14.30;99.90
63260;DHT22;49390;51.380;0.098;2023-05-07T07:41:48;14.30;99.90
63260;DHT22;49390;51.380;0.098;2023-05-07T07:44:18;14.30;99.90
63260;DHT22;49390;51.380;0.098;2023-05-07T07:46:51;14.30;99.90
63260;DHT22;49390;51.380;0.098;2023-05-07T07:49:20;14.30;99.90
63260;DHT22;49390;51.380;0.098;2023-05-07T07:51:48;14.40;99.90
63260;DHT22;49390;51.380;0.098;2023-05-07T07:54:17;14.40;99.90
63260;DHT22;49390;51.380;0.098;2023-05-07T07:56:45;14.40;99.90
63260;DHT22;49390;51.380;0.098;2023-05-07T07:59:14;14.40;99.90
63260;DHT22;49390;51.380;0.098;2023-05-07T08:01:46;14.50;99.90
63260;DHT22;49390;51.380;0.098;2023-05-07T08:04:16;14.50;99.90
63260;DHT22;49390;51.380;0.098;2023-05-07T08:06:45;14.50;99.90
63260;DHT22;49390;51.380;0.098;2023-05-07T08:09:14;14.60;99.90
63260;DHT22;49390;51.380;0.098;2023-05-07T08:11:43;14.60;99.90
63260;DHT22;49390;51.380;0.098;2023-05-07T08:14:11;14.70;99.90
63260;DHT22;49390;51.380;0.098;2023-05-07T08:16:39;14.70;99.90
63260;DHT22;49390;51.380;0.098;2023-05-07T08:19:08;14.80;99.90
63260;DHT22;49390;51.380;0.098;2023-05-07T08:21:39;14.80;99.90
63260;DHT22;49390;51.380;0.098;2023-05-07T08:24:09;14.90;99.90
63260;DHT22;49390;51.380;0.098;2023-05-07T08:26:37;14.90;99.90
63260;DHT22;49390;51.380;0.098;2023-05-07T08:29:08;14.90;99.90
63260;DHT22;49390;51.380;0.098;2023-05-07T08:31:36;15.00;99.90
63260;DHT22;49390;51.380;0.098;2023-05-07T08:34:06;15.10;99.90
63260;DHT22;49390;51.380;0.098;2023-05-07T08:36:39;15.10;99.90
63260;DHT22;49390;51.380;0.098;2023-05-07T08:39:10;15.20;99.90
63260;DHT22;49390;51.380;0.098;2023-05-07T08:41:39;15.20;99.90
63260;DHT22;49390;51.380;0.098;2023-05-07T08:44:12;15.20;99.90
63260;DHT22;49390;51.380;0.098;2023-05-07T08:46:41;15.30;99.90
63260;DHT22;49390;51.380;0.098;2023-05-07T08:49:12;15.40;99.90
63260;DHT22;49390;51.380;0.098;2023-05-07T08:53:59;15.60;99.90
63260;DHT22;49390;51.380;0.098;2023-05-07T08:56:33;15.70;99.90
63260;DHT22;49390;51.380;0.098;2023-05-07T08:59:01;15.90;99.90
63260;DHT22;49390;51.380;0.098;2023-05-07T09:01:30;16.00;99.90
63260;DHT22;49390;51.380;0.098;2023-05-07T09:03:58;16.10;99.90
63260;DHT22;49390;51.380;0.098;2023-05-07T09:06:28;16.30;99.90
63260;DHT22;49390;51.380;0.098;2023-05-07T09:08:57;16.60;99.90
63260;DHT22;49390;51.380;0.098;2023-05-07T09:11:30;16.90;99.90
63260;DHT22;49390;51.380;0.098;2023-05-07T09:14:01;17.10;99.90
63260;DHT22;49390;51.380;0.098;2023-05-07T09:16:37;17.40;99.90
63260;DHT22;49390;51.380;0.098;2023-05-07T09:19:06;17.70;99.90
63260;DHT22;49390;51.380;0.098;2023-05-07T09:21:35;18.00;99.90
63260;DHT22;49390;51.380;0.098;2023-05-07T09:24:06;18.20;99.90
63260;DHT22;49390;51.380;0.098;2023-05-07T09:26:39;18.40;99.90
63260;DHT22;49390;51.380;0.098;2023-05-07T09:29:10;18.40;99.90
63260;DHT22;49390;51.380;0.098;2023-05-07T09:31:39;18.50;99.90
63260;DHT22;49390;51.380;0.098;2023-05-07T09:34:11;18.50;99.90
63260;DHT22;49390;51.380;0.098;2023-05-07T09:36:41;18.60;99.90
63260;DHT22;49390;51.380;0.098;2023-05-07T09:39:09;18.50;99.90
63260;DHT22;49390;51.380;0.098;2023-05-07T09:41:46;18.50;99.90
63260;DHT22;49390;51.380;0.098;2023-05-07T09:44:32;18.40;99.90
63260;DHT22;49390;51.380;0.098;2023-05-07T09:47:01;18.40;99.90
63260;DHT22;49390;51.380;0.098;2023-05-07T09:49:39;18.40;99.90
63260;DHT22;49390;51.380;0.098;2023-05-07T09:52:10;18.30;99.90
63260;DHT22;49390;51.380;0.098;2023-05-07T09:54:45;18.30;99.90
63260;DHT22;49390;51.380;0.098;2023-05-07T09:57:19;18.20;99.90
63260;DHT22;49390;51.380;0.098;2023-05-07T09:59:52;18.20;99.90
63260;DHT22;49390;51.380;0.098;2023-05-07T10:02:21;18.10;99.90
63260;DHT22;49390;51.380;0.098;2023-05-07T10:04:54;18.10;99.90
63260;DHT22;49390;51.380;0.098;2023-05-07T10:07:28;18.10;99.90
63260;DHT22;49390;51.380;0.098;2023-05-07T10:10:01;18.10;99.90
63260;DHT22;49390;51.380;0.098;2023-05-07T10:12:35;18.10;99.90
63260;DHT22;49390;51.380;0.098;2023-05-07T10:15:12;18.10;99.90
63260;DHT22;49390;51.380;0.098;2023-05-07T10:17:46;18.10;99.90
63260;DHT22;49390;51.380;0.098;2023-05-07T10:20:18;18.10;99.90
63260;DHT22;49390;51.380;0.098;2023-05-07T10:22:48;18.20;99.90
63260;DHT22;49390;51.380;0.098;2023-05-07T10:25:30;18.30;99.90
63260;DHT22;49390;51.380;0.098;2023-05-07T10:28:06;18.30;99.90
63260;DHT22;49390;51.380;0.098;2023-05-07T10:30:58;18.30;99.90
63260;DHT22;49390;51.380;0.098;2023-05-07T10:33:37;18.40;99.90
63260;DHT22;49390;51.380;0.098;2023-05-07T10:36:08;18.40;99.90
63260;DHT22;49390;51.380;0.098;2023-05-07T10:38:36;18.40;99.90
63260;DHT22;49390;51.380;0.098;2023-05-07T10:41:05;18.30;99.90
63260;DHT22;49390;51.380;0.098;2023-05-07T10:43:43;18.40;99.90
63260;DHT22;49390;51.380;0.098;2023-05-07T10:46:19;18.40;99.90
63260;DHT22;49390;51.380;0.098;2023-05-07T10:49:14;18.50;99.90
63260;DHT22;49390;51.380;0.098;2023-05-07T10:57:53;18.60;99.90
63260;DHT22;49390;51.380;0.098;2023-05-07T11:05:37;18.60;99.90
63260;DHT22;49390;51.380;0.098;2023-05-07T11:08:20;18.60;99.90
63260;DHT22;49390;51.380;0.098;2023-05-07T11:11:03;18.60;99.90
63260;DHT22;49390;51.380;0.098;2023-05-07T11:13:48;18.70;99.90
63260;DHT22;49390;51.380;0.098;2023-05-07T11:16:33;18.70;99.90
63260;DHT22;49390;51.380;0.098;2023-05-07T11:19:16;18.70;99.90
63260;DHT22;49390;51.380;0.098;2023-05-07T11:21:49;18.60;99.90
63260;DHT22;49390;51.380;0.098;2023-05-07T11:24:42;18.60;99.90
63260;DHT22;49390;51.380;0.098;2023-05-07T11:27:13;18.70;99.90
63260;DHT22;49390;51.380;0.098;2023-05-07T11:29:46;18.70;99.90
63260;DHT22;49390;51.380;0.098;2023-05-07T11:32:24;18.70;99.90
63260;DHT22;49390;51.380;0.098;2023-05-07T11:34:54;18.80;99.90
63260;DHT22;49390;51.380;0.098;2023-05-07T11:37:24;18.80;99.90
63260;DHT22;49390;51.380;0.098;2023-05-07T11:40:04;18.90;99.90
63260;DHT22;49390;51.380;0.098;2023-05-07T11:42:38;18.90;99.90
63260;DHT22;49390;51.380;0.098;2023-05-07T11:45:07;18.90;99.90
63260;DHT22;49390;51.380;0.098;2023-05-07T11:47:36;18.90;99.90
63260;DHT22;49390;51.380;0.098;2023-05-07T11:50:07;18.90;99.90
63260;DHT22;49390;51.380;0.098;2023-05-07T11:52:36;18.90;99.90
63260;DHT22;49390;51.380;0.098;2023-05-07T11:55:04;19.00;99.90
63260;DHT22;49390;51.380;0.098;2023-05-07T11:57:33;19.00;99.90
63260;DHT22;49390;51.380;0.098;2023-05-07T12:00:02;19.00;99.90
63260;DHT22;49390;51.380;0.098;2023-05-07T12:02:45;18.90;99.90
63260;DHT22;49390;51.380;0.098;2023-05-07T12:05:13;18.90;99.90
63260;DHT22;49390;51.380;0.098;2023-05-07T12:07:41;18.80;99.90
63260;DHT22;49390;51.380;0.098;2023-05-07T12:10:11;18.80;99.90
63260;DHT22;49390;51.380;0.098;2023-05-07T12:12:40;18.80;99.90
63260;DHT22;49390;51.380;0.098;2023-05-07T12:15:10;18.90;99.90
63260;DHT22;49390;51.380;0.098;2023-05-07T12:17:38;19.00;99.90
63260;DHT22;49390;51.380;0.098;2023-05-07T12:20:08;19.10;99.90
63260;DHT22;49390;51.380;0.098;2023-05-07T12:22:40;19.20;99.90
63260;DHT22;49390;51.380;0.098;2023-05-07T12:25:08;19.30;99.90
63260;DHT22;49390;51.380;0.098;2023-05-07T12:27:37;19.40;99.90
63260;DHT22;49390;51.380;0.098;2023-05-07T12:30:09;19.50;99.90
63260;DHT22;49390;51.380;0.098;2023-05-07T12:32:37;19.60;99.90
63260;DHT22;49390;51.380;0.098;2023-05-07T12:35:06;19.70;99.90
63260;DHT22;49390;51.380;0.098;2023-05-07T12:37:35;19.70;99.90
63260;DHT22;49390;51.380;0.098;2023-05-07T12:40:08;19.80;99.90
63260;DHT22;49390;51.380;0.098;2023-05-07T12:42:38;19.80;99.90
63260;DHT22;49390;51.380;0.098;2023-05-07T12:45:10;19.70;99.90
63260;DHT22;49390;51.380;0.098;2023-05-07T12:47:39;19.70;99.90
63260;DHT22;49390;51.380;0.098;2023-05-07T12:50:07;19.70;99.90
63260;DHT22;49390;51.380;0.098;2023-05-07T12:52:35;19.70;99.90
63260;DHT22;49390;51.380;0.098;2023-05-07T12:55:08;19.70;99.90
63260;DHT22;49390;51.380;0.098;2023-05-07T12:57:42;19.90;99.90
63260;DHT22;49390;51.380;0.098;2023-05-07T13:00:10;20.00;99.90
63260;DHT22;49390;51.380;0.098;2023-05-07T13:02:42;20.00;99.90
63260;DHT22;49390;51.380;0.098;2023-05-07T13:05:13;20.00;99.90
63260;DHT22;49390;51.380;0.098;2023-05-07T13:07:52;20.00;99.90
63260;DHT22;49390;51.380;0.098;2023-05-07T13:10:24;20.00;99.90
63260;DHT22;49390;51.380;0.098;2023-05-07T13:12:55;19.90;99.90
63260;DHT22;49390;51.380;0.098;2023-05-07T13:15:23;19.80;99.90
63260;DHT22;49390;51.380;0.098;2023-05-07T13:17:51;19.80;99.90
63260;DHT22;49390;51.380;0.098;2023-05-07T13:20:21;19.80;99.90
63260;DHT22;49390;51.380;0.098;2023-05-07T13:22:49;19.70;99.90
63260;DHT22;49390;51.380;0.098;2023-05-07T13:25:17;19.80;99.90
63260;DHT22;49390;51.380;0.098;2023-05-07T13:27:45;19.80;99.90
63260;DHT22;49390;51.380;0.098;2023-05-07T13:30:20;19.90;99.90
63260;DHT22;49390;51.380;0.098;2023-05-07T13:32:48;19.90;99.90
63260;DHT22;49390;51.380;0.098;2023-05-07T13:35:17;20.00;99.90
63260;DHT22;49390;51.380;0.098;2023-05-07T13:37:45;20.00;99.90
63260;DHT22;49390;51.380;0.098;2023-05-07T13:40:13;20.00;99.90
63260;DHT22;49390;51.380;0.098;2023-05-07T13:42:41;20.00;99.90
63260;DHT22;49390;51.380;0.098;2023-05-07T13:45:09;20.00;99.90
63260;DHT22;49390;51.380;0.098;2023-05-07T13:47:42;20.00;99.90
63260;DHT22;49390;51.380;0.098;2023-05-07T13:50:11;20.10;99.90
63260;DHT22;49390;51.380;0.098;2023-05-07T13:52:44;20.30;98.40
63260;DHT22;49390;51.380;0.098;2023-05-07T13:55:19;20.50;96.80
63260;DHT22;49390;51.380;0.098;2023-05-07T13:57:47;20.80;94.00
63260;DHT22;49390;51.380;0.098;2023-05-07T14:00:15;21.00;92.40
63260;DHT22;49390;51.380;0.098;2023-05-07T14:02:44;21.20;90.30
63260;DHT22;49390;51.380;0.098;2023-05-07T14:05:12;21.20;87.20
63260;DHT22;49390;51.380;0.098;2023-05-07T14:07:41;21.20;86.30
63260;DHT22;49390;51.380;0.098;2023-05-07T14:10:11;21.00;86.40
63260;DHT22;49390;51.380;0.098;2023-05-07T14:12:41;20.90;86.50
63260;DHT22;49390;51.380;0.098;2023-05-07T14:15:13;20.80;87.00
63260;DHT22;49390;51.380;0.098;2023-05-07T14:17:42;20.70;87.00
63260;DHT22;49390;51.380;0.098;2023-05-07T14:20:11;20.70;87.30
63260;DHT22;49390;51.380;0.098;2023-05-07T14:22:39;20.60;87.00
63260;DHT22;49390;51.380;0.098;2023-05-07T14:25:08;20.70;86.60
63260;DHT22;49390;51.380;0.098;2023-05-07T14:27:37;20.80;85.20
63260;DHT22;49390;51.380;0.098;2023-05-07T14:30:05;20.90;83.90
63260;DHT22;49390;51.380;0.098;2023-05-07T14:32:34;21.10;82.70
63260;DHT22;49390;51.380;0.098;2023-05-07T14:35:02;21.40;79.70
63260;DHT22;49390;51.380;0.098;2023-05-07T14:37:31;21.50;77.30
63260;DHT22;49390;51.380;0.098;2023-05-07T14:39:59;21.60;75.50
63260;DHT22;49390;51.380;0.098;2023-05-07T14:42:27;21.70;74.90
63260;DHT22;49390;51.380;0.098;2023-05-07T14:44:55;21.80;74.40
63260;DHT22;49390;51.380;0.098;2023-05-07T14:47:23;21.90;72.80
63260;DHT22;49390;51.380;0.098;2023-05-07T14:49:51;22.00;72.30
63260;DHT22;49390;51.380;0.098;2023-05-07T14:52:19;22.00;71.70
63260;DHT22;49390;51.380;0.098;2023-05-07T14:54:47;22.10;71.20
63260;DHT22;49390;51.380;0.098;2023-05-07T14:57:15;22.10;70.60
63260;DHT22;49390;51.380;0.098;2023-05-07T14:59:44;22.20;70.40
63260;DHT22;49390;51.380;0.098;2023-05-07T15:02:12;22.20;69.30
63260;DHT22;49390;51.380;0.098;2023-05-07T15:04:40;22.20;68.10
63260;DHT22;49390;51.380;0.098;2023-05-07T15:07:14;22.20;68.00
63260;DHT22;49390;51.380;0.098;2023-05-07T15:09:43;22.10;67.80
63260;DHT22;49390;51.380;0.098;2023-05-07T15:12:12;22.10;67.60
63260;DHT22;49390;51.380;0.098;2023-05-07T15:14:41;22.10;67.30
63260;DHT22;49390;51.380;0.098;2023-05-07T15:17:12;22.10;67.20
63260;DHT22;49390;51.380;0.098;2023-05-07T15:19:42;22.00;66.80
63260;DHT22;49390;51.380;0.098;2023-05-07T15:22:10;22.00;66.30
63260;DHT22;49390;51.380;0.098;2023-05-07T15:24:38;22.00;66.30
63260;DHT22;49390;51.380;0.098;2023-05-07T15:27:09;22.00;66.30
63260;DHT22;49390;51.380;0.098;2023-05-07T15:29:36;22.00;66.30
63260;DHT22;49390;51.380;0.098;2023-05-07T15:32:05;22.00;65.90
63260;DHT22;49390;51.380;0.098;2023-05-07T15:34:33;22.00;65.80
63260;DHT22;49390;51.380;0.098;2023-05-07T15:37:01;22.00;66.20
63260;DHT22;49390;51.380;0.098;2023-05-07T15:39:30;22.00;65.50
63260;DHT22;49390;51.380;0.098;2023-05-07T15:41:58;22.20;64.10
63260;DHT22;49390;51.380;0.098;2023-05-07T15:44:30;22.20;63.40
63260;DHT22;49390;51.380;0.098;2023-05-07T15:47:02;22.20;63.90
63260;DHT22;49390;51.380;0.098;2023-05-07T15:49:32;22.30;64.20
63260;DHT22;49390;51.380;0.098;2023-05-07T15:52:00;22.30;63.90
63260;DHT22;49390;51.380;0.098;2023-05-07T15:54:29;22.30;64.00
63260;DHT22;49390;51.380;0.098;2023-05-07T15:56:57;22.40;63.90
63260;DHT22;49390;51.380;0.098;2023-05-07T15:59:25;22.30;63.40
63260;DHT22;49390;51.380;0.098;2023-05-07T16:01:53;22.10;63.30
63260;DHT22;49390;51.380;0.098;2023-05-07T16:04:21;21.90;63.70
63260;DHT22;49390;51.380;0.098;2023-05-07T16:06:49;21.80;64.30
63260;DHT22;49390;51.380;0.098;2023-05-07T16:09:17;21.70;64.90